Terminal Aerodrome Forecast
Issued by NWS Houston/Galveston, TX

Home | Current Version | Previous Version | Text Only | Print | Product List | Glossary On
Versions: 1 2 3 4 5 6 7 8 9 10 11 12 13 14 15 16 17 18 19 20 21 22 23 24
000
FTUS44 KHGX 272341
TAFCLL
TAF
KCLL 272341Z 2800/2824 17013KT P6SM SCT045 BKN060
     FM280300 16008KT P6SM BKN020
     FM280900 16007KT P6SM BKN013
     FM281600 17010G18KT P6SM BKN024
     FM281800 18012G19KT P6SM SCT040=

USA.gov is the U.S. government's official web portal to all federal, state and local government web resources and services.